sensor_id;sensor_type;location;lat;lon;timestamp;temperature;humidity
1812;DHT22;904;47.814;11.134;2023-07-29T00:00:51;19.10;99.90
1812;DHT22;904;47.814;11.134;2023-07-29T00:03:18;19.00;99.90
1812;DHT22;904;47.814;11.134;2023-07-29T00:05:46;18.80;99.90
1812;DHT22;904;47.814;11.134;2023-07-29T00:08:14;18.90;99.90
1812;DHT22;904;47.814;11.134;2023-07-29T00:10:42;18.80;99.90
1812;DHT22;904;47.814;11.134;2023-07-29T00:13:11;18.80;99.90
1812;DHT22;904;47.814;11.134;2023-07-29T00:15:40;18.80;99.90
1812;DHT22;904;47.814;11.134;2023-07-29T00:18:07;18.70;99.90
1812;DHT22;904;47.814;11.134;2023-07-29T00:20:35;18.70;99.90
1812;DHT22;904;47.814;11.134;2023-07-29T00:23:02;18.70;99.90
1812;DHT22;904;47.814;11.134;2023-07-29T00:25:29;18.70;99.90
1812;DHT22;904;47.814;11.134;2023-07-29T00:27:59;18.60;99.90
1812;DHT22;904;47.814;11.134;2023-07-29T00:30:27;18.60;99.90
1812;DHT22;904;47.814;11.134;2023-07-29T00:32:54;18.60;99.90
1812;DHT22;904;47.814;11.134;2023-07-29T00:35:21;18.50;99.90
1812;DHT22;904;47.814;11.134;2023-07-29T00:37:48;18.40;99.90
1812;DHT22;904;47.814;11.134;2023-07-29T00:40:19;18.40;99.90
1812;DHT22;904;47.814;11.134;2023-07-29T00:42:47;18.40;99.90
1812;DHT22;904;47.814;11.134;2023-07-29T00:45:18;18.30;99.90
1812;DHT22;904;47.814;11.134;2023-07-29T00:47:51;18.20;99.90
1812;DHT22;904;47.814;11.134;2023-07-29T00:50:19;18.20;99.90
1812;DHT22;904;47.814;11.134;2023-07-29T00:52:47;18.20;99.90
1812;DHT22;904;47.814;11.134;2023-07-29T00:55:15;18.20;99.90
1812;DHT22;904;47.814;11.134;2023-07-29T00:57:46;18.30;99.90
1812;DHT22;904;47.814;11.134;2023-07-29T01:00:18;18.30;99.90
1812;DHT22;904;47.814;11.134;2023-07-29T01:02:45;18.30;99.90
1812;DHT22;904;47.814;11.134;2023-07-29T01:05:13;18.30;99.90
1812;DHT22;904;47.814;11.134;2023-07-29T01:07:47;18.30;99.90
1812;DHT22;904;47.814;11.134;2023-07-29T01:10:20;18.30;99.90
1812;DHT22;904;47.814;11.134;2023-07-29T01:12:53;18.20;99.90
1812;DHT22;904;47.814;11.134;2023-07-29T01:15:25;18.20;99.90
1812;DHT22;904;47.814;11.134;2023-07-29T01:17:55;18.20;99.90
1812;DHT22;904;47.814;11.134;2023-07-29T01:20:24;18.10;99.90
1812;DHT22;904;47.814;11.134;2023-07-29T01:22:52;18.10;99.90
1812;DHT22;904;47.814;11.134;2023-07-29T01:25:20;18.10;99.90
1812;DHT22;904;47.814;11.134;2023-07-29T01:27:50;18.10;99.90
1812;DHT22;904;47.814;11.134;2023-07-29T01:30:18;18.10;99.90
1812;DHT22;904;47.814;11.134;2023-07-29T01:32:53;18.10;99.90
1812;DHT22;904;47.814;11.134;2023-07-29T01:35:24;18.10;99.90
1812;DHT22;904;47.814;11.134;2023-07-29T01:37:55;18.10;99.90
1812;DHT22;904;47.814;11.134;2023-07-29T01:40:26;18.10;99.90
1812;DHT22;904;47.814;11.134;2023-07-29T01:42:54;18.00;99.90
1812;DHT22;904;47.814;11.134;2023-07-29T01:45:26;18.00;99.90
1812;DHT22;904;47.814;11.134;2023-07-29T01:47:53;17.90;99.90
1812;DHT22;904;47.814;11.134;2023-07-29T01:50:22;18.00;99.90
1812;DHT22;904;47.814;11.134;2023-07-29T01:52:53;18.00;99.90
1812;DHT22;904;47.814;11.134;2023-07-29T01:55:20;18.00;99.90
1812;DHT22;904;47.814;11.134;2023-07-29T01:57:49;17.90;99.90
1812;DHT22;904;47.814;11.134;2023-07-29T02:00:17;17.90;99.90
1812;DHT22;904;47.814;11.134;2023-07-29T02:02:45;17.80;99.90
1812;DHT22;904;47.814;11.134;2023-07-29T02:05:14;17.80;99.90
1812;DHT22;904;47.814;11.134;2023-07-29T02:07:41;17.80;99.90
1812;DHT22;904;47.814;11.134;2023-07-29T02:10:08;17.80;99.90
1812;DHT22;904;47.814;11.134;2023-07-29T02:12:35;17.90;99.90
1812;DHT22;904;47.814;11.134;2023-07-29T02:15:05;17.80;99.90
1812;DHT22;904;47.814;11.134;2023-07-29T02:17:32;17.70;99.90
1812;DHT22;904;47.814;11.134;2023-07-29T02:20:00;17.70;99.90
1812;DHT22;904;47.814;11.134;2023-07-29T02:22:32;17.70;99.90
1812;DHT22;904;47.814;11.134;2023-07-29T02:25:04;17.70;99.90
1812;DHT22;904;47.814;11.134;2023-07-29T02:27:31;17.70;99.90
1812;DHT22;904;47.814;11.134;2023-07-29T02:30:00;17.80;99.90
1812;DHT22;904;47.814;11.134;2023-07-29T02:32:29;17.70;99.90
1812;DHT22;904;47.814;11.134;2023-07-29T02:34:56;17.60;99.90
1812;DHT22;904;47.814;11.134;2023-07-29T02:37:25;17.50;99.90
1812;DHT22;904;47.814;11.134;2023-07-29T02:39:52;17.50;99.90
1812;DHT22;904;47.814;11.134;2023-07-29T02:42:19;17.60;99.90
1812;DHT22;904;47.814;11.134;2023-07-29T02:44:50;17.60;99.90
1812;DHT22;904;47.814;11.134;2023-07-29T02:47:17;17.70;99.90
1812;DHT22;904;47.814;11.134;2023-07-29T02:49:46;17.70;99.90
1812;DHT22;904;47.814;11.134;2023-07-29T02:52:18;17.70;99.90
1812;DHT22;904;47.814;11.134;2023-07-29T02:54:45;17.80;99.90
1812;DHT22;904;47.814;11.134;2023-07-29T02:57:17;17.80;99.90
1812;DHT22;904;47.814;11.134;2023-07-29T02:59:45;17.80;99.90
1812;DHT22;904;47.814;11.134;2023-07-29T03:02:12;17.90;99.90
1812;DHT22;904;47.814;11.134;2023-07-29T03:04:40;17.90;99.90
1812;DHT22;904;47.814;11.134;2023-07-29T03:07:12;18.00;99.90
1812;DHT22;904;47.814;11.134;2023-07-29T03:09:44;18.00;99.90
1812;DHT22;904;47.814;11.134;2023-07-29T03:12:11;18.10;99.90
1812;DHT22;904;47.814;11.134;2023-07-29T03:14:38;18.10;99.90
1812;DHT22;904;47.814;11.134;2023-07-29T03:17:08;18.10;99.90
1812;DHT22;904;47.814;11.134;2023-07-29T03:19:36;18.20;99.90
1812;DHT22;904;47.814;11.134;2023-07-29T03:22:03;18.20;99.90
1812;DHT22;904;47.814;11.134;2023-07-29T03:24:31;18.10;99.90
1812;DHT22;904;47.814;11.134;2023-07-29T03:26:58;18.10;99.90
1812;DHT22;904;47.814;11.134;2023-07-29T03:29:26;18.10;99.90
1812;DHT22;904;47.814;11.134;2023-07-29T03:31:53;18.20;99.90
1812;DHT22;904;47.814;11.134;2023-07-29T03:34:22;18.30;99.90
1812;DHT22;904;47.814;11.134;2023-07-29T03:36:49;18.30;99.90
1812;DHT22;904;47.814;11.134;2023-07-29T03:39:17;18.30;99.90
1812;DHT22;904;47.814;11.134;2023-07-29T03:41:54;18.30;99.90
1812;DHT22;904;47.814;11.134;2023-07-29T03:44:22;18.20;99.90
1812;DHT22;904;47.814;11.134;2023-07-29T03:46:50;18.10;99.90
1812;DHT22;904;47.814;11.134;2023-07-29T03:49:25;18.10;99.90
1812;DHT22;904;47.814;11.134;2023-07-29T03:51:52;17.90;99.90
1812;DHT22;904;47.814;11.134;2023-07-29T03:54:19;17.80;99.90
1812;DHT22;904;47.814;11.134;2023-07-29T03:56:48;17.70;99.90
1812;DHT22;904;47.814;11.134;2023-07-29T03:59:17;17.80;99.90
1812;DHT22;904;47.814;11.134;2023-07-29T04:01:44;17.70;99.90
1812;DHT22;904;47.814;11.134;2023-07-29T04:04:11;17.70;99.90
1812;DHT22;904;47.814;11.134;2023-07-29T04:06:43;17.50;99.90
1812;DHT22;904;47.814;11.134;2023-07-29T04:09:10;17.60;99.90
1812;DHT22;904;47.814;11.134;2023-07-29T04:11:38;17.70;99.90
1812;DHT22;904;47.814;11.134;2023-07-29T04:14:05;17.70;99.90
1812;DHT22;904;47.814;11.134;2023-07-29T04:16:33;17.70;99.90
1812;DHT22;904;47.814;11.134;2023-07-29T04:19:00;17.70;99.90
1812;DHT22;904;47.814;11.134;2023-07-29T04:21:27;17.70;99.90
1812;DHT22;904;47.814;11.134;2023-07-29T04:23:56;17.80;99.90
1812;DHT22;904;47.814;11.134;2023-07-29T04:26:23;17.80;99.90
1812;DHT22;904;47.814;11.134;2023-07-29T04:28:50;17.80;99.90
1812;DHT22;904;47.814;11.134;2023-07-29T04:31:17;17.80;99.90
1812;DHT22;904;47.814;11.134;2023-07-29T04:33:46;17.90;99.90
1812;DHT22;904;47.814;11.134;2023-07-29T04:36:13;18.00;99.90
1812;DHT22;904;47.814;11.134;2023-07-29T04:38:40;18.00;99.90
1812;DHT22;904;47.814;11.134;2023-07-29T04:41:07;18.10;99.90
1812;DHT22;904;47.814;11.134;2023-07-29T04:43:34;18.20;99.90
1812;DHT22;904;47.814;11.134;2023-07-29T04:46:01;18.20;99.90
1812;DHT22;904;47.814;11.134;2023-07-29T04:48:28;18.30;99.90
1812;DHT22;904;47.814;11.134;2023-07-29T04:51:01;18.30;99.90
1812;DHT22;904;47.814;11.134;2023-07-29T04:53:28;18.20;99.90
1812;DHT22;904;47.814;11.134;2023-07-29T04:55:55;18.30;99.90
1812;DHT22;904;47.814;11.134;2023-07-29T04:58:22;18.40;99.90
1812;DHT22;904;47.814;11.134;2023-07-29T05:00:49;18.40;99.90
1812;DHT22;904;47.814;11.134;2023-07-29T05:03:16;18.40;99.90
1812;DHT22;904;47.814;11.134;2023-07-29T05:05:45;18.40;99.90
1812;DHT22;904;47.814;11.134;2023-07-29T05:08:14;18.50;99.90
1812;DHT22;904;47.814;11.134;2023-07-29T05:10:41;18.60;99.90
1812;DHT22;904;47.814;11.134;2023-07-29T05:13:08;18.60;99.90
1812;DHT22;904;47.814;11.134;2023-07-29T05:15:35;18.70;99.90
1812;DHT22;904;47.814;11.134;2023-07-29T05:18:07;18.70;99.90
1812;DHT22;904;47.814;11.134;2023-07-29T05:20:34;18.70;99.90
1812;DHT22;904;47.814;11.134;2023-07-29T05:23:01;18.70;99.90
1812;DHT22;904;47.814;11.134;2023-07-29T05:25:29;18.80;99.90
1812;DHT22;904;47.814;11.134;2023-07-29T05:27:56;18.80;99.90
1812;DHT22;904;47.814;11.134;2023-07-29T05:30:23;18.80;99.90
1812;DHT22;904;47.814;11.134;2023-07-29T05:32:52;18.80;99.90
1812;DHT22;904;47.814;11.134;2023-07-29T05:35:19;18.80;99.90
1812;DHT22;904;47.814;11.134;2023-07-29T05:37:46;18.60;99.90
1812;DHT22;904;47.814;11.134;2023-07-29T05:40:13;18.50;99.90
1812;DHT22;904;47.814;11.134;2023-07-29T05:42:41;18.40;99.90
1812;DHT22;904;47.814;11.134;2023-07-29T05:45:22;18.40;99.90
1812;DHT22;904;47.814;11.134;2023-07-29T05:47:54;18.50;99.90
1812;DHT22;904;47.814;11.134;2023-07-29T05:50:26;18.60;99.90
1812;DHT22;904;47.814;11.134;2023-07-29T05:52:55;18.60;99.90
1812;DHT22;904;47.814;11.134;2023-07-29T05:55:26;18.70;99.90
1812;DHT22;904;47.814;11.134;2023-07-29T05:57:56;18.70;99.90
1812;DHT22;904;47.814;11.134;2023-07-29T06:00:26;18.80;99.90
1812;DHT22;904;47.814;11.134;2023-07-29T06:03:19;18.80;99.90
1812;DHT22;904;47.814;11.134;2023-07-29T06:05:53;18.80;99.90
1812;DHT22;904;47.814;11.134;2023-07-29T06:08:26;18.80;99.90
1812;DHT22;904;47.814;11.134;2023-07-29T06:10:56;18.70;99.90
1812;DHT22;904;47.814;11.134;2023-07-29T06:13:28;18.80;99.90
1812;DHT22;904;47.814;11.134;2023-07-29T06:15:56;18.80;99.90
1812;DHT22;904;47.814;11.134;2023-07-29T06:18:27;18.90;99.90
1812;DHT22;904;47.814;11.134;2023-07-29T06:20:54;18.90;99.90
1812;DHT22;904;47.814;11.134;2023-07-29T06:23:21;18.90;99.90
1812;DHT22;904;47.814;11.134;2023-07-29T06:25:48;18.90;99.90
1812;DHT22;904;47.814;11.134;2023-07-29T06:28:19;18.90;99.90
1812;DHT22;904;47.814;11.134;2023-07-29T06:30:48;18.90;99.90
1812;DHT22;904;47.814;11.134;2023-07-29T06:33:15;18.90;99.90
1812;DHT22;904;47.814;11.134;2023-07-29T06:35:42;19.00;99.90
1812;DHT22;904;47.814;11.134;2023-07-29T06:38:09;19.00;99.90
1812;DHT22;904;47.814;11.134;2023-07-29T06:40:36;19.10;99.90
1812;DHT22;904;47.814;11.134;2023-07-29T06:43:03;19.10;99.90
1812;DHT22;904;47.814;11.134;2023-07-29T06:45:30;19.10;99.90
1812;DHT22;904;47.814;11.134;2023-07-29T06:47:58;19.10;99.90
1812;DHT22;904;47.814;11.134;2023-07-29T06:50:25;19.20;99.90
1812;DHT22;904;47.814;11.134;2023-07-29T06:52:52;19.20;99.90
1812;DHT22;904;47.814;11.134;2023-07-29T06:55:19;19.20;99.90
1812;DHT22;904;47.814;11.134;2023-07-29T06:57:46;19.20;99.90
1812;DHT22;904;47.814;11.134;2023-07-29T07:00:14;19.20;99.90
1812;DHT22;904;47.814;11.134;2023-07-29T07:02:41;19.30;99.90
1812;DHT22;904;47.814;11.134;2023-07-29T07:05:10;19.30;99.90
1812;DHT22;904;47.814;11.134;2023-07-29T07:07:38;19.40;99.90
1812;DHT22;904;47.814;11.134;2023-07-29T07:10:10;19.50;99.90
1812;DHT22;904;47.814;11.134;2023-07-29T07:12:38;19.50;99.90
1812;DHT22;904;47.814;11.134;2023-07-29T07:15:06;19.60;99.90
1812;DHT22;904;47.814;11.134;2023-07-29T07:17:34;19.70;99.90
1812;DHT22;904;47.814;11.134;2023-07-29T07:20:03;19.70;99.90
1812;DHT22;904;47.814;11.134;2023-07-29T07:22:32;19.70;99.90
1812;DHT22;904;47.814;11.134;2023-07-29T07:24:59;19.70;99.90
1812;DHT22;904;47.814;11.134;2023-07-29T07:27:26;19.70;99.90
1812;DHT22;904;47.814;11.134;2023-07-29T07:29:53;19.70;99.90
1812;DHT22;904;47.814;11.134;2023-07-29T07:32:20;19.80;99.90
1812;DHT22;904;47.814;11.134;2023-07-29T07:34:47;19.80;99.90
1812;DHT22;904;47.814;11.134;2023-07-29T07:37:14;19.80;99.90
1812;DHT22;904;47.814;11.134;2023-07-29T07:39:42;19.90;99.90
1812;DHT22;904;47.814;11.134;2023-07-29T07:42:09;19.90;99.90
1812;DHT22;904;47.814;11.134;2023-07-29T07:44:36;19.90;99.90
1812;DHT22;904;47.814;11.134;2023-07-29T07:47:03;20.00;99.90
1812;DHT22;904;47.814;11.134;2023-07-29T07:49:35;20.20;99.90
1812;DHT22;904;47.814;11.134;2023-07-29T07:52:02;20.30;99.90
1812;DHT22;904;47.814;11.134;2023-07-29T07:54:29;20.50;99.90
1812;DHT22;904;47.814;11.134;2023-07-29T07:57:00;20.50;99.90
1812;DHT22;904;47.814;11.134;2023-07-29T07:59:27;20.40;99.90
1812;DHT22;904;47.814;11.134;2023-07-29T08:01:54;20.40;99.90
1812;DHT22;904;47.814;11.134;2023-07-29T08:04:21;20.50;99.90
1812;DHT22;904;47.814;11.134;2023-07-29T08:06:48;20.50;99.90
1812;DHT22;904;47.814;11.134;2023-07-29T08:09:15;20.30;99.90
1812;DHT22;904;47.814;11.134;2023-07-29T08:11:42;20.30;99.90
1812;DHT22;904;47.814;11.134;2023-07-29T08:14:11;20.40;99.90
1812;DHT22;904;47.814;11.134;2023-07-29T08:16:38;20.40;99.90
1812;DHT22;904;47.814;11.134;2023-07-29T08:19:05;20.50;99.90
1812;DHT22;904;47.814;11.134;2023-07-29T08:21:32;20.50;99.90
1812;DHT22;904;47.814;11.134;2023-07-29T08:23:59;20.60;99.90
1812;DHT22;904;47.814;11.134;2023-07-29T08:26:28;20.80;99.90
1812;DHT22;904;47.814;11.134;2023-07-29T08:28:55;20.90;99.90
1812;DHT22;904;47.814;11.134;2023-07-29T08:31:24;20.90;99.90
1812;DHT22;904;47.814;11.134;2023-07-29T08:33:51;20.90;99.90
1812;DHT22;904;47.814;11.134;2023-07-29T08:36:18;21.00;99.90
1812;DHT22;904;47.814;11.134;2023-07-29T08:38:45;21.00;99.90
1812;DHT22;904;47.814;11.134;2023-07-29T08:41:14;21.00;99.90
1812;DHT22;904;47.814;11.134;2023-07-29T08:43:48;21.00;99.90
1812;DHT22;904;47.814;11.134;2023-07-29T08:46:18;21.10;99.90
1812;DHT22;904;47.814;11.134;2023-07-29T08:48:47;21.20;99.90
1812;DHT22;904;47.814;11.134;2023-07-29T08:51:14;21.40;99.90
1812;DHT22;904;47.814;11.134;2023-07-29T08:53:47;21.40;99.90
1812;DHT22;904;47.814;11.134;2023-07-29T08:56:15;21.50;99.90
1812;DHT22;904;47.814;11.134;2023-07-29T08:58:43;21.50;99.90
1812;DHT22;904;47.814;11.134;2023-07-29T09:01:10;21.60;99.90
1812;DHT22;904;47.814;11.134;2023-07-29T09:03:38;21.80;99.90
1812;DHT22;904;47.814;11.134;2023-07-29T09:06:08;22.00;99.90
1812;DHT22;904;47.814;11.134;2023-07-29T09:08:35;22.10;99.90
1812;DHT22;904;47.814;11.134;2023-07-29T09:11:02;22.30;99.90
1812;DHT22;904;47.814;11.134;2023-07-29T09:13:30;22.50;99.40
1812;DHT22;904;47.814;11.134;2023-07-29T09:15:57;22.60;99.50
1812;DHT22;904;47.814;11.134;2023-07-29T09:18:26;22.80;98.00
1812;DHT22;904;47.814;11.134;2023-07-29T09:20:54;22.90;96.40
1812;DHT22;904;47.814;11.134;2023-07-29T09:23:26;23.00;95.70
1812;DHT22;904;47.814;11.134;2023-07-29T09:26:01;23.10;96.60
1812;DHT22;904;47.814;11.134;2023-07-29T09:28:33;23.20;96.90
1812;DHT22;904;47.814;11.134;2023-07-29T09:31:00;23.20;93.90
1812;DHT22;904;47.814;11.134;2023-07-29T09:33:34;23.20;94.00
1812;DHT22;904;47.814;11.134;2023-07-29T09:36:09;23.30;94.90
1812;DHT22;904;47.814;11.134;2023-07-29T09:38:37;23.50;95.30
1812;DHT22;904;47.814;11.134;2023-07-29T09:41:05;23.70;95.20
1812;DHT22;904;47.814;11.134;2023-07-29T09:43:33;23.90;95.20
1812;DHT22;904;47.814;11.134;2023-07-29T09:46:00;24.00;93.60
1812;DHT22;904;47.814;11.134;2023-07-29T09:48:28;24.10;93.20
1812;DHT22;904;47.814;11.134;2023-07-29T09:51:00;24.20;92.90
1812;DHT22;904;47.814;11.134;2023-07-29T09:53:41;24.50;94.10
1812;DHT22;904;47.814;11.134;2023-07-29T09:56:09;24.70;92.90
1812;DHT22;904;47.814;11.134;2023-07-29T09:58:36;24.80;91.90
1812;DHT22;904;47.814;11.134;2023-07-29T10:01:04;24.90;91.20
1812;DHT22;904;47.814;11.134;2023-07-29T10:03:32;25.00;91.00
1812;DHT22;904;47.814;11.134;2023-07-29T10:06:00;25.20;90.90
1812;DHT22;904;47.814;11.134;2023-07-29T10:08:29;25.30;88.90
1812;DHT22;904;47.814;11.134;2023-07-29T10:10:59;25.40;87.60
1812;DHT22;904;47.814;11.134;2023-07-29T10:13:27;25.50;87.50
1812;DHT22;904;47.814;11.134;2023-07-29T10:15:59;25.60;89.00
1812;DHT22;904;47.814;11.134;2023-07-29T10:18:32;25.80;87.80
1812;DHT22;904;47.814;11.134;2023-07-29T10:21:01;25.90;86.50
1812;DHT22;904;47.814;11.134;2023-07-29T10:23:32;26.10;89.60
1812;DHT22;904;47.814;11.134;2023-07-29T10:26:03;26.30;87.50
1812;DHT22;904;47.814;11.134;2023-07-29T10:28:31;26.50;87.70
1812;DHT22;904;47.814;11.134;2023-07-29T10:31:00;26.60;86.60
1812;DHT22;904;47.814;11.134;2023-07-29T10:33:27;26.70;84.50
1812;DHT22;904;47.814;11.134;2023-07-29T10:35:55;26.80;83.30
1812;DHT22;904;47.814;11.134;2023-07-29T10:38:23;26.80;82.60
1812;DHT22;904;47.814;11.134;2023-07-29T10:40:52;26.80;80.60
1812;DHT22;904;47.814;11.134;2023-07-29T10:43:26;26.90;83.70
1812;DHT22;904;47.814;11.134;2023-07-29T10:45:55;26.90;81.30
1812;DHT22;904;47.814;11.134;2023-07-29T10:48:41;27.00;79.40
1812;DHT22;904;47.814;11.134;2023-07-29T10:51:29;27.00;80.40
1812;DHT22;904;47.814;11.134;2023-07-29T10:53:57;26.90;78.50
1812;DHT22;904;47.814;11.134;2023-07-29T10:56:29;26.90;78.80
1812;DHT22;904;47.814;11.134;2023-07-29T10:58:59;26.80;79.20
1812;DHT22;904;47.814;11.134;2023-07-29T11:01:29;26.80;77.00
1812;DHT22;904;47.814;11.134;2023-07-29T11:04:26;26.80;78.20
1812;DHT22;904;47.814;11.134;2023-07-29T11:07:20;26.80;77.00
1812;DHT22;904;47.814;11.134;2023-07-29T11:10:10;26.90;75.80
1812;DHT22;904;47.814;11.134;2023-07-29T11:12:40;26.90;75.30
1812;DHT22;904;47.814;11.134;2023-07-29T11:15:20;27.00;76.20
1812;DHT22;904;47.814;11.134;2023-07-29T11:17:48;27.00;74.90
1812;DHT22;904;47.814;11.134;2023-07-29T11:20:16;27.20;74.00
1812;DHT22;904;47.814;11.134;2023-07-29T11:22:43;27.20;72.30
1812;DHT22;904;47.814;11.134;2023-07-29T11:25:12;27.30;73.70
1812;DHT22;904;47.814;11.134;2023-07-29T11:27:39;27.40;74.30
1812;DHT22;904;47.814;11.134;2023-07-29T11:30:08;27.50;69.90
1812;DHT22;904;47.814;11.134;2023-07-29T11:32:38;27.50;70.40
1812;DHT22;904;47.814;11.134;2023-07-29T11:35:07;27.40;65.20
1812;DHT22;904;47.814;11.134;2023-07-29T11:37:36;27.40;65.00
1812;DHT22;904;47.814;11.134;2023-07-29T11:40:04;27.40;66.60
1812;DHT22;904;47.814;11.134;2023-07-29T11:42:32;27.40;68.60
1812;DHT22;904;47.814;11.134;2023-07-29T11:45:00;27.50;66.20
1812;DHT22;904;47.814;11.134;2023-07-29T11:47:27;27.60;67.80
1812;DHT22;904;47.814;11.134;2023-07-29T11:49:58;27.70;68.40
1812;DHT22;904;47.814;11.134;2023-07-29T11:52:26;27.70;64.80
1812;DHT22;904;47.814;11.134;2023-07-29T11:54:54;27.80;65.70
1812;DHT22;904;47.814;11.134;2023-07-29T11:57:21;27.90;64.90
1812;DHT22;904;47.814;11.134;2023-07-29T11:59:48;27.90;63.30
1812;DHT22;904;47.814;11.134;2023-07-29T12:02:16;27.90;63.20
1812;DHT22;904;47.814;11.134;2023-07-29T12:04:44;27.90;62.60
1812;DHT22;904;47.814;11.134;2023-07-29T12:07:17;27.90;62.00
1812;DHT22;904;47.814;11.134;2023-07-29T12:09:45;27.90;62.20
1812;DHT22;904;47.814;11.134;2023-07-29T12:12:15;27.90;60.50
1812;DHT22;904;47.814;11.134;2023-07-29T12:14:44;27.90;62.10
1812;DHT22;904;47.814;11.134;2023-07-29T12:17:12;28.00;62.80
1812;DHT22;904;47.814;11.134;2023-07-29T12:19:40;28.00;61.20
1812;DHT22;904;47.814;11.134;2023-07-29T12:22:07;28.00;61.00
1812;DHT22;904;47.814;11.134;2023-07-29T12:24:37;28.00;60.50
1812;DHT22;904;47.814;11.134;2023-07-29T12:27:09;28.00;60.40
1812;DHT22;904;47.814;11.134;2023-07-29T12:29:40;28.00;61.00
1812;DHT22;904;47.814;11.134;2023-07-29T12:32:18;28.00;61.40
1812;DHT22;904;47.814;11.134;2023-07-29T12:34:45;28.00;62.80
1812;DHT22;904;47.814;11.134;2023-07-29T12:37:12;28.00;62.70
1812;DHT22;904;47.814;11.134;2023-07-29T12:39:41;28.00;60.80
1812;DHT22;904;47.814;11.134;2023-07-29T12:42:08;28.00;61.80
1812;DHT22;904;47.814;11.134;2023-07-29T12:44:36;27.90;59.60
1812;DHT22;904;47.814;11.134;2023-07-29T12:47:05;27.90;59.70
1812;DHT22;904;47.814;11.134;2023-07-29T12:49:34;27.90;60.20
1812;DHT22;904;47.814;11.134;2023-07-29T12:52:01;27.90;60.40
1812;DHT22;904;47.814;11.134;2023-07-29T12:54:28;27.90;60.60
1812;DHT22;904;47.814;11.134;2023-07-29T12:56:58;28.00;61.20
1812;DHT22;904;47.814;11.134;2023-07-29T12:59:25;28.00;59.70
1812;DHT22;904;47.814;11.134;2023-07-29T13:01:52;28.00;62.30
1812;DHT22;904;47.814;11.134;2023-07-29T13:04:22;28.10;62.20
1812;DHT22;904;47.814;11.134;2023-07-29T13:06:49;28.30;60.70
1812;DHT22;904;47.814;11.134;2023-07-29T13:09:16;28.30;59.50
1812;DHT22;904;47.814;11.134;2023-07-29T13:11:44;28.30;57.30
1812;DHT22;904;47.814;11.134;2023-07-29T13:14:12;28.30;58.30
1812;DHT22;904;47.814;11.134;2023-07-29T13:16:40;28.30;57.90
1812;DHT22;904;47.814;11.134;2023-07-29T13:19:07;28.40;57.20
1812;DHT22;904;47.814;11.134;2023-07-29T13:21:34;28.30;54.40
1812;DHT22;904;47.814;11.134;2023-07-29T13:24:01;28.30;55.80
1812;DHT22;904;47.814;11.134;2023-07-29T13:26:29;28.30;56.20
1812;DHT22;904;47.814;11.134;2023-07-29T13:28:55;28.30;55.50
1812;DHT22;904;47.814;11.134;2023-07-29T13:31:24;28.30;55.00
1812;DHT22;904;47.814;11.134;2023-07-29T13:33:51;28.30;57.30
1812;DHT22;904;47.814;11.134;2023-07-29T13:36:18;28.30;56.30
1812;DHT22;904;47.814;11.134;2023-07-29T13:38:45;28.30;56.20
1812;DHT22;904;47.814;11.134;2023-07-29T13:41:15;28.30;55.90
1812;DHT22;904;47.814;11.134;2023-07-29T13:43:42;28.20;55.50
1812;DHT22;904;47.814;11.134;2023-07-29T13:46:09;28.20;55.90
1812;DHT22;904;47.814;11.134;2023-07-29T13:48:37;28.10;54.50
1812;DHT22;904;47.814;11.134;2023-07-29T13:51:06;28.10;54.50
1812;DHT22;904;47.814;11.134;2023-07-29T13:53:34;28.10;55.90
1812;DHT22;904;47.814;11.134;2023-07-29T13:56:01;28.10;56.70
1812;DHT22;904;47.814;11.134;2023-07-29T13:58:28;28.00;56.50
1812;DHT22;904;47.814;11.134;2023-07-29T14:00:55;27.90;55.10
1812;DHT22;904;47.814;11.134;2023-07-29T14:03:22;27.90;56.00
1812;DHT22;904;47.814;11.134;2023-07-29T14:05:50;27.80;56.70
1812;DHT22;904;47.814;11.134;2023-07-29T14:08:17;27.70;58.70
1812;DHT22;904;47.814;11.134;2023-07-29T14:10:44;27.70;59.30
1812;DHT22;904;47.814;11.134;2023-07-29T14:13:11;27.60;59.50
1812;DHT22;904;47.814;11.134;2023-07-29T14:15:40;27.50;59.40
1812;DHT22;904;47.814;11.134;2023-07-29T14:18:06;27.40;61.50
1812;DHT22;904;47.814;11.134;2023-07-29T14:20:39;27.30;62.50
1812;DHT22;904;47.814;11.134;2023-07-29T14:23:08;27.10;62.20
1812;DHT22;904;47.814;11.134;2023-07-29T14:25:35;26.90;62.60
1812;DHT22;904;47.814;11.134;2023-07-29T14:28:03;26.80;63.80
1812;DHT22;904;47.814;11.134;2023-07-29T14:30:30;26.70;64.50
1812;DHT22;904;47.814;11.134;2023-07-29T14:32:57;26.60;65.00
1812;DHT22;904;47.814;11.134;2023-07-29T14:35:24;26.50;64.40
1812;DHT22;904;47.814;11.134;2023-07-29T14:37:51;26.40;65.60
1812;DHT22;904;47.814;11.134;2023-07-29T14:40:19;26.40;67.00
1812;DHT22;904;47.814;11.134;2023-07-29T14:42:46;26.40;67.20
1812;DHT22;904;47.814;11.134;2023-07-29T14:45:15;26.30;67.20
1812;DHT22;904;47.814;11.134;2023-07-29T14:47:42;26.20;67.90
1812;DHT22;904;47.814;11.134;2023-07-29T14:50:11;26.20;68.70
1812;DHT22;904;47.814;11.134;2023-07-29T14:52:38;26.10;68.40
1812;DHT22;904;47.814;11.134;2023-07-29T14:55:06;26.10;69.40
1812;DHT22;904;47.814;11.134;2023-07-29T14:57:34;26.10;70.60
1812;DHT22;904;47.814;11.134;2023-07-29T15:00:03;26.00;71.20
1812;DHT22;904;47.814;11.134;2023-07-29T15:02:30;26.10;71.50
1812;DHT22;904;47.814;11.134;2023-07-29T15:04:57;26.10;71.30
1812;DHT22;904;47.814;11.134;2023-07-29T15:07:25;26.00;71.60
1812;DHT22;904;47.814;11.134;2023-07-29T15:09:52;26.00;72.00
1812;DHT22;904;47.814;11.134;2023-07-29T15:12:20;25.90;70.50
1812;DHT22;904;47.814;11.134;2023-07-29T15:14:50;25.80;69.10
1812;DHT22;904;47.814;11.134;2023-07-29T15:17:17;25.60;67.90
1812;DHT22;904;47.814;11.134;2023-07-29T15:19:49;25.50;68.20
1812;DHT22;904;47.814;11.134;2023-07-29T15:22:17;25.30;62.50
1812;DHT22;904;47.814;11.134;2023-07-29T15:24:44;25.20;60.60
1812;DHT22;904;47.814;11.134;2023-07-29T15:27:12;25.00;60.30
1812;DHT22;904;47.814;11.134;2023-07-29T15:29:40;24.90;60.80
1812;DHT22;904;47.814;11.134;2023-07-29T15:32:09;24.80;60.10
1812;DHT22;904;47.814;11.134;2023-07-29T15:34:36;24.70;58.70
1812;DHT22;904;47.814;11.134;2023-07-29T15:37:09;24.70;57.40
1812;DHT22;904;47.814;11.134;2023-07-29T15:39:36;24.60;58.00
1812;DHT22;904;47.814;11.134;2023-07-29T15:42:03;24.50;57.40
1812;DHT22;904;47.814;11.134;2023-07-29T15:44:30;24.50;57.70
1812;DHT22;904;47.814;11.134;2023-07-29T15:47:02;24.40;57.70
1812;DHT22;904;47.814;11.134;2023-07-29T15:49:31;24.30;58.50
1812;DHT22;904;47.814;11.134;2023-07-29T15:51:58;24.30;57.90
1812;DHT22;904;47.814;11.134;2023-07-29T15:54:25;24.30;57.70
1812;DHT22;904;47.814;11.134;2023-07-29T15:56:52;24.20;57.50
1812;DHT22;904;47.814;11.134;2023-07-29T15:59:19;24.10;57.30
1812;DHT22;904;47.814;11.134;2023-07-29T16:01:46;23.80;57.80
1812;DHT22;904;47.814;11.134;2023-07-29T16:04:17;23.80;58.90
1812;DHT22;904;47.814;11.134;2023-07-29T16:06:45;23.80;61.10
1812;DHT22;904;47.814;11.134;2023-07-29T16:09:12;23.80;61.90
1812;DHT22;904;47.814;11.134;2023-07-29T16:11:39;23.70;62.50